Terminal Aerodrome Forecast
Issued by NWS Northern Indiana

Home | Current Version | Previous Version | Graphics & Text | Print | Product List | Glossary On
Versions: 1 2 3 4 5 6 7 8 9 10 11 12
000
FTUS43 KIWX 171100
TAFFWA
TAF
KFWA 171120Z 1712/1812 14009KT P6SM FEW150 SCT250
     FM171600 21013G21KT P6SM FEW060 BKN200
     FM180100 20007KT P6SM BKN100=

USA.gov is the U.S. government's official web portal to all federal, state and local government web resources and services.